Milwaukee, Wisconsin
Traffic Map
Current Weather Conditions
Milwaukee, Wisconsin
Few Clouds
Few Clouds

Feels Like: 1°
Wind Chill: Ceiling: Unl
Heat Index: Visibility: 10mi
Dew Point: -5° Wind: 12mph
Humidity: 51% Direction: 230° (SW)
Pressure: 29.94in Gusts: 0mph
Raw Report DataKMKE 231652Z 23010KT 10SM FEW050 04/M05 A2994 RMK AO2 SLP147 T00441050
Traffic Incident Summary
Active as of:
Severity:
Category:
InformationThere was an issue retrieving the traffic information for this location. Please try a different location or try again shortly.
Advertisements